Flugplatz gelöscht (UL)

Hier findest Du alle Informationen zum Flugplatz gelöscht (UL).

Informationen für Piloten zum Flugplatz gelöscht

Hier findest Du alle relevanten Informationen, die Du als Pilot benötigst, um gelöscht anzufliegen.

Flugplatz: gelöscht ICAO-Code: UL Flugplatz
Frequenz Turm: 120.975 Mhz GAFOR Gebiet: -
Frequenz Ground: 120.975 Mhz Mogas: ja
Platzrunde: NW 2500 ft Landegebühr: 3 €
Platzhöhe: - Sunrise: 03:19 Uhr UTC
Pisten: 04/22 - 400 m x 20 m, GRAS Sunset: 19:09 Uhr UTC

Mitglieder, die in gelöscht fliegen

Flugwetter am Flugplatz gelöscht

Die METAR Information stammen aus EDDE (53.26 km entfernt).

METAR Code:
2022/05/15 07:50
EDDE 150750Z AUTO 07006KT 020V120 CAVOK 16/09 Q1022 NOSIG

Flugschulen am Flugplatz gelöscht

Am Flugplatz gelöscht gibt es leider keine Flugschule.

Benachbarte Flugplätze und Flugschulen

Es gibt 13 weitere Flugplätze in einem Umkreis von 50 km um den Flugplatz gelöscht.

Jetzt anmelden

Passwort vergessen

Umfrage Archiv

Sendet Ihr ADS-B und/oder FLARM?

Ja
81.6 %
Nein
18.4 %
Stimmen: 147 | Diskussion
Anzeige: Roland Aircraft
Statistik Alle Mitglieder

Aktuell sind 64 Besucher online, davon 4 Mitglieder und 60 Gäste.


Mitglieder online:
Dschonny  TobiasM  Excalibur93  Hoppsing 

Anzeige: ULPower Aero Engines Anzeige: Pocket FMS